Time;durP1;ratioP1;P1;durP2;ratioP2;P2;SDS_P1;SDS_P2;PMS_P1;PMS_P2;Temp;Humidity;BMP_temperature;BMP_pressure;BME280_temperature;BME280_humidity;BME280_pressure;Samples;Min_cycle;Max_cycle;Signal;HPM_P1;HPM_P2
2022/06/11 00:00:53;;;;;;;5.83;3.33;;;;;;;12.33;57.56;101490.39;1772902;80;21465;-88
2022/06/11 00:03:19;;;;;;;;;;;;;;;12.30;57.62;101490.85;1775953;80;21053;-88
2022/06/11 00:05:46;;;;;;;7.22;3.85;;;;;;;12.28;58.28;101489.57;1773631;80;21595;-88
2022/06/11 00:08:12;;;;;;;7.92;3.52;;;;;;;12.24;57.77;101486.14;1773454;80;21592;-88
2022/06/11 00:10:39;;;;;;;7.37;3.60;;;;;;;12.22;57.82;101481.84;1773709;80;20993;-88
2022/06/11 00:13:07;;;;;;;4.70;3.27;;;;;;;12.18;57.85;101482.30;1756236;80;21569;-88
2022/06/11 00:15:34;;;;;;;6.37;3.62;;;;;;;12.14;57.93;101481.05;1744181;80;21081;-88
2022/06/11 00:18:02;;;;;;;7.50;3.20;;;;;;;12.11;58.00;101479.34;1758847;79;21533;-88
2022/06/11 00:20:31;;;;;;;5.35;3.87;;;;;;;12.09;58.04;101481.52;1754794;81;21648;-88
2022/06/11 00:22:57;;;;;;;6.03;3.30;;;;;;;12.07;58.08;101476.78;1754287;81;21517;-88
2022/06/11 00:25:24;;;;;;;3.85;3.15;;;;;;;12.03;58.12;101479.84;1743377;81;21391;-88
2022/06/11 00:27:51;;;;;;;;;;;;;;;12.00;58.19;101477.70;1756802;81;21458;-88
2022/06/11 00:30:19;;;;;;;5.20;4.03;;;;;;;11.98;58.71;101476.86;1739185;81;20479;-88
2022/06/11 00:32:47;;;;;;;3.30;2.62;;;;;;;11.95;58.27;101478.21;1754306;80;21502;-88
2022/06/11 00:35:16;;;;;;;9.95;3.65;;;;;;;11.92;58.32;101475.20;1753515;80;21525;-88
2022/06/11 00:37:43;;;;;;;;;;;;;;;11.86;58.38;101478.70;1757000;81;21514;-88
2022/06/11 00:40:16;;;;;;;4.58;3.02;;;;;;;11.83;58.94;101483.91;1754576;81;20159;-88
2022/06/11 00:42:43;;;;;;;5.83;3.10;;;;;;;11.69;58.46;101474.04;1753441;79;21545;-88
2022/06/11 00:45:24;;;;;;;8.45;3.80;;;;;;;11.73;58.50;101489.12;1754346;81;21118;-88
2022/06/11 00:47:59;;;;;;;6.95;3.52;;;;;;;11.68;58.58;101483.98;1740612;81;21568;-88
2022/06/11 00:50:46;;;;;;;5.62;3.60;;;;;;;11.66;58.70;101481.83;1750012;79;21602;-88
2022/06/11 00:53:24;;;;;;;5.45;2.90;;;;;;;11.66;58.74;101478.38;1740928;82;21525;-88
2022/06/11 00:55:51;;;;;;;4.80;3.60;;;;;;;11.61;58.76;101473.23;1739695;81;21097;-88
2022/06/11 00:58:22;;;;;;;5.33;3.90;;;;;;;11.56;58.85;101479.73;1741250;82;21076;-88
2022/06/11 01:00:53;;;;;;;5.75;4.00;;;;;;;11.53;58.92;101474.57;1740959;82;21057;-87
2022/06/11 01:03:25;;;;;;;4.78;3.55;;;;;;;11.53;58.99;101478.89;1740844;82;21458;-88
2022/06/11 01:05:57;;;;;;;3.12;2.77;;;;;;;11.51;59.03;101482.78;1740298;82;21544;-88
2022/06/11 01:08:57;;;;;;;3.10;2.62;;;;;;;11.46;59.09;101481.09;1735551;80;21585;-88
2022/06/11 01:11:39;;;;;;;3.05;2.75;;;;;;;11.42;59.14;101484.59;1731704;82;21054;-88
2022/06/11 01:14:22;;;;;;;3.37;3.08;;;;;;;11.37;59.19;101477.28;1714638;83;21589;-88
2022/06/11 01:17:14;;;;;;;3.50;3.20;;;;;;;11.33;59.28;101477.73;1728145;81;21521;-88
2022/06/11 01:20:07;;;;;;;3.60;3.10;;;;;;;11.28;59.31;101477.77;1749176;80;21569;-87
2022/06/11 01:23:11;;;;;;;5.17;3.15;;;;;;;11.25;59.39;101483.38;1758575;80;21728;-87
2022/06/11 01:26:01;;;;;;;4.90;2.75;;;;;;;11.23;59.44;101484.69;1747704;81;21643;-87
2022/06/11 01:29:07;;;;;;;3.55;3.20;;;;;;;11.19;59.49;101485.57;1751493;80;423319;-87
2022/06/11 01:31:42;;;;;;;4.80;3.20;;;;;;;11.16;59.53;101488.17;1758646;81;21533;-88
2022/06/11 01:34:26;;;;;;;5.10;3.70;;;;;;;11.11;59.62;101477.41;1758738;81;21562;-87
2022/06/11 01:36:58;;;;;;;7.25;4.45;;;;;;;11.07;59.69;101488.20;1753735;81;21716;-87
2022/06/11 01:39:36;;;;;;;4.90;3.70;;;;;;;11.07;59.79;101487.34;1758826;79;21580;-88
2022/06/11 01:42:23;;;;;;;5.72;3.98;;;;;;;11.05;59.88;101487.78;1753573;81;21506;-88
2022/06/11 01:45:23;;;;;;;5.05;4.15;;;;;;;11.03;59.97;101482.61;1758755;81;21056;-88
2022/06/11 01:47:52;;;;;;;3.92;3.52;;;;;;;11.02;60.03;101485.21;1727745;82;20997;-88
2022/06/11 01:50:22;;;;;;;7.50;4.05;;;;;;;10.98;60.12;101486.09;1730360;81;21069;-87
2022/06/11 01:53:41;;;;;;;4.85;4.45;;;;;;;10.96;60.24;101483.50;1758518;81;21498;-88
2022/06/11 01:56:30;;;;;;;4.35;3.37;;;;;;;10.99;60.26;101483.92;1758769;81;21528;-88
2022/06/11 01:59:34;;;;;;;7.45;3.65;;;;;;;10.97;60.30;101490.84;1759109;81;22293;-88
2022/06/11 02:02:30;;;;;;;4.00;3.62;;;;;;;10.94;60.29;101490.41;1758892;80;21496;-88
2022/06/11 02:05:26;;;;;;;3.80;3.40;;;;;;;10.92;60.39;101495.59;1758894;81;21517;-88
2022/06/11 02:08:07;;;;;;;5.15;3.35;;;;;;;10.90;60.41;101490.89;1758421;81;21509;-88
2022/06/11 02:10:47;;;;;;;6.08;3.30;;;;;;;10.87;60.44;101498.66;1725117;81;21517;-88
2022/06/11 02:13:27;;;;;;;4.70;3.30;;;;;;;10.85;60.48;101500.82;1758453;81;21450;-88
2022/06/11 02:16:08;;;;;;;3.25;2.90;;;;;;;10.81;60.50;101502.98;1755338;80;21478;-88
2022/06/11 02:18:38;;;;;;;3.25;2.95;;;;;;;10.77;60.53;101498.25;1758923;81;21113;-88
2022/06/11 02:21:15;;;;;;;4.75;2.90;;;;;;;10.75;60.60;101503.86;1783958;80;21079;-88
2022/06/11 02:23:50;;;;;;;3.65;3.08;;;;;;;10.74;60.64;101499.98;1737156;81;21132;-88
2022/06/11 02:26:24;;;;;;;5.12;3.30;;;;;;;10.70;60.69;101500.86;1758081;80;21536;-88
2022/06/11 02:28:52;;;;;;;5.22;3.37;;;;;;;10.67;60.78;101499.14;1758491;81;21113;-88
2022/06/11 02:31:23;;;;;;;3.35;3.05;;;;;;;10.67;60.83;101501.72;1758721;81;21556;-89
2022/06/11 02:33:51;;;;;;;3.50;2.95;;;;;;;10.65;60.89;101504.75;1758856;81;21049;-88
2022/06/11 02:36:27;;;;;;;5.10;3.12;;;;;;;10.64;60.98;101500.44;1758787;81;20970;-88
2022/06/11 02:38:58;;;;;;;3.37;3.10;;;;;;;10.65;61.03;101496.12;1758406;81;20978;-89
2022/06/11 02:41:32;;;;;;;3.85;2.80;;;;;;;10.63;61.08;101500.44;1758508;81;21517;-88
2022/06/11 02:43:59;;;;;;;3.40;3.10;;;;;;;10.64;61.13;101505.61;1758300;81;21133;-88
2022/06/11 02:46:43;;;;;;;;;;;;;;;10.65;61.15;101509.92;1771261;80;21704;-88
2022/06/11 02:49:21;;;;;;;3.90;2.35;;;;;;;10.63;61.63;101509.49;1758262;81;20496;-89
2022/06/11 02:51:57;;;;;;;2.60;2.35;;;;;;;10.60;61.16;101522.00;1758259;81;21564;-88
2022/06/11 02:54:29;;;;;;;2.67;2.40;;;;;;;10.58;61.22;101521.14;1784024;80;21521;-88
2022/06/11 02:56:56;;;;;;;3.55;2.60;;;;;;;10.55;61.23;101522.00;1728172;81;21552;-88
2022/06/11 02:59:25;;;;;;;4.05;3.42;;;;;;;10.55;61.28;101530.20;1728695;81;21557;-88
2022/06/11 03:01:55;;;;;;;4.60;3.02;;;;;;;10.54;61.34;101528.04;1758533;81;21044;-88
2022/06/11 03:04:24;;;;;;;3.58;2.90;;;;;;;10.54;61.45;101530.62;1758470;81;21068;-88
2022/06/11 03:06:51;;;;;;;3.12;2.83;;;;;;;10.56;61.48;101531.91;1758551;81;22284;-88
2022/06/11 03:09:23;;;;;;;3.67;2.45;;;;;;;10.56;61.55;101533.21;1758369;81;21128;-88
2022/06/11 03:11:50;;;;;;;5.03;3.22;;;;;;;10.56;61.61;101534.50;1758535;81;21120;-89
2022/06/11 03:14:17;;;;;;;3.37;3.12;;;;;;;10.58;61.69;101528.47;1758228;81;21617;-89
2022/06/11 03:16:44;;;;;;;;;;;;;;;10.60;61.76;101529.33;1803845;78;21782;-88
2022/06/11 03:19:12;;;;;;;5.22;2.77;;;;;;;10.63;62.36;101536.65;1758828;81;20204;-88
2022/06/11 03:21:40;;;;;;;4.30;2.98;;;;;;;10.67;61.87;101534.48;1758633;81;21409;-88
2022/06/11 03:24:08;;;;;;;3.35;3.05;;;;;;;10.71;61.89;101529.74;1758535;81;21381;-88
2022/06/11 03:26:35;;;;;;;4.25;3.22;;;;;;;10.74;61.92;101536.20;1758177;81;21514;-88
2022/06/11 03:29:01;;;;;;;;;;;;;;;10.77;61.97;101537.06;1761381;81;22252;-88
2022/06/11 03:31:27;;;;;;;3.75;2.95;;;;;;;10.80;62.48;101533.17;1758901;81;20153;-88
2022/06/11 03:33:54;;;;;;;3.72;2.30;;;;;;;10.85;62.05;101543.08;1758989;81;21097;-88
2022/06/11 03:36:20;;;;;;;4.17;3.20;;;;;;;10.89;62.09;101542.64;1758705;81;22248;-88
2022/06/11 03:38:48;;;;;;;3.25;2.90;;;;;;;10.94;62.12;101539.58;1758775;81;21100;-88
2022/06/11 03:41:17;;;;;;;3.80;3.50;;;;;;;10.98;62.17;101536.55;1754762;81;21019;-88
2022/06/11 03:43:44;;;;;;;5.37;3.67;;;;;;;11.01;62.20;101534.81;1758769;81;21554;-88
2022/06/11 03:46:11;;;;;;;;;;;;;;;11.05;62.27;101543.43;1761259;81;21465;-88
2022/06/11 03:48:41;;;;;;;5.90;3.92;;;;;;;11.12;62.95;101539.95;1758291;81;20643;-88
2022/06/11 03:51:08;;;;;;;5.60;3.67;;;;;;;11.18;62.47;101543.82;1758923;81;28723;-88
2022/06/11 03:53:36;;;;;;;6.12;3.90;;;;;;;11.24;62.49;101546.39;1755480;81;21477;-88
2022/06/11 03:56:07;;;;;;;6.15;3.17;;;;;;;11.30;62.56;101550.25;1738056;81;21376;-88
2022/06/11 03:58:37;;;;;;;4.20;3.42;;;;;;;11.36;62.59;101546.78;1758756;81;22374;-88
2022/06/11 04:01:16;;;;;;;5.47;3.27;;;;;;;11.44;62.70;101551.45;1758905;81;21544;-88
2022/06/11 04:03:53;;;;;;;5.22;3.58;;;;;;;11.52;62.73;101549.69;1758399;81;21092;-88
2022/06/11 04:06:25;;;;;;;7.55;3.52;;;;;;;11.67;62.90;101548.32;1758139;80;21550;-88
2022/06/11 04:08:51;;;;;;;3.75;3.33;;;;;;;11.96;63.03;101555.92;1758927;81;22249;-88
2022/06/11 04:11:20;;;;;;;4.78;3.65;;;;;;;12.27;63.06;101553.98;1759202;81;21124;-88
2022/06/11 04:13:55;;;;;;;6.00;4.05;;;;;;;12.51;63.11;101545.95;1759333;81;21422;-88
2022/06/11 04:16:35;;;;;;;9.05;4.30;;;;;;;12.69;63.03;101549.26;1716288;81;21569;-88
2022/06/11 04:19:06;;;;;;;4.83;4.33;;;;;;;12.78;63.02;101546.58;1715689;82;21501;-88
2022/06/11 04:21:35;;;;;;;4.42;3.72;;;;;;;12.87;63.12;101544.75;1715972;82;21490;-88
2022/06/11 04:24:04;;;;;;;4.90;4.05;;;;;;;12.99;63.19;101542.45;1715713;82;21616;-89
2022/06/11 04:26:43;;;;;;;4.60;3.10;;;;;;;13.11;63.19;101550.08;1715883;82;21625;-88
2022/06/11 04:29:14;;;;;;;4.40;3.83;;;;;;;13.22;63.19;101548.25;1715866;82;21629;-88
2022/06/11 04:31:40;;;;;;;3.70;3.40;;;;;;;13.31;63.23;101545.13;1715582;82;21109;-88
2022/06/11 04:34:07;;;;;;;4.42;3.30;;;;;;;13.38;63.24;101546.33;1707293;83;21510;-88
2022/06/11 04:36:35;;;;;;;4.08;3.75;;;;;;;13.47;63.38;101545.35;1716113;82;21090;-88
2022/06/11 04:39:06;;;;;;;5.00;3.80;;;;;;;13.62;63.44;101540.36;1690786;83;22309;-88
2022/06/11 04:41:33;;;;;;;5.10;4.15;;;;;;;13.78;63.44;101531.03;1715333;83;21562;-88
2022/06/11 04:44:00;;;;;;;3.92;3.45;;;;;;;13.96;63.46;101532.95;1715622;82;21063;-88
2022/06/11 04:46:27;;;;;;;6.08;3.62;;;;;;;14.11;63.50;101532.67;1718833;82;21596;-88
2022/06/11 04:48:53;;;;;;;4.50;3.72;;;;;;;14.28;63.51;101538.47;1716067;82;26769;-88
2022/06/11 04:51:20;;;;;;;4.03;3.40;;;;;;;14.44;63.54;101539.97;1715861;82;20990;-88
2022/06/11 04:53:48;;;;;;;4.17;3.77;;;;;;;14.62;63.61;101536.16;1715583;82;21630;-88
2022/06/11 04:56:23;;;;;;;6.40;3.45;;;;;;;14.83;63.61;101537.51;1715769;82;21504;-88
2022/06/11 04:58:49;;;;;;;4.30;3.87;;;;;;;15.08;63.65;101539.17;1715291;82;21593;-89
2022/06/11 05:01:16;;;;;;;5.58;3.35;;;;;;;15.53;63.81;101545.19;1707101;83;21089;-89
2022/06/11 05:03:42;;;;;;;;;;;;;;;16.15;63.88;101547.64;1712111;83;21052;-90
2022/06/11 05:06:14;;;;;;;6.25;3.75;;;;;;;16.85;64.01;101546.31;1706804;82;20698;-90
2022/06/11 05:08:41;;;;;;;4.40;3.20;;;;;;;17.53;63.69;101542.16;1712387;83;20975;-90
2022/06/11 05:11:08;;;;;;;3.75;3.22;;;;;;;18.33;63.64;101536.55;1706890;83;20994;-90
2022/06/11 05:13:39;;;;;;;3.90;2.98;;;;;;;18.77;63.15;101540.28;1709418;83;21419;-90
2022/06/11 05:16:06;;;;;;;5.10;3.20;;;;;;;19.11;63.11;101540.78;1747655;80;21097;-90
2022/06/11 05:18:33;;;;;;;3.75;3.02;;;;;;;19.72;63.30;101542.87;1702570;83;21162;-90
2022/06/11 05:21:02;;;;;;;4.78;2.67;;;;;;;20.32;63.04;101552.62;1737320;81;21081;-91
2022/06/11 05:23:32;;;;;;;3.60;2.75;;;;;;;20.86;62.82;101553.83;1742199;80;20990;-91
2022/06/11 05:26:03;;;;;;;3.45;2.00;;;;;;;21.37;62.64;101556.37;1733716;81;21552;-91
2022/06/11 05:28:32;;;;;;;2.67;2.08;;;;;;;21.73;62.50;101555.97;1745801;81;21014;-91
2022/06/11 05:31:00;;;;;;;5.62;2.20;;;;;;;22.19;62.47;101550.27;1726964;81;21026;-91
2022/06/11 05:33:29;;;;;;;3.35;2.00;;;;;;;22.64;62.18;101549.24;1682155;81;21731;-90
2022/06/11 05:35:56;;;;;;;1.80;1.70;;;;;;;23.12;61.95;101554.21;1727783;81;21604;-90
2022/06/11 05:38:29;;;;;;;3.22;2.45;;;;;;;23.54;61.86;101552.36;1701064;81;21141;-91
2022/06/11 05:41:01;;;;;;;2.75;1.65;;;;;;;23.93;61.44;101548.39;1718579;81;21137;-92
2022/06/11 05:43:27;;;;;;;4.67;1.90;;;;;;;24.28;61.40;101551.22;1745839;80;21483;-91
2022/06/11 05:46:02;;;;;;;3.60;1.67;;;;;;;24.70;61.20;101553.56;1706791;82;21519;-91
2022/06/11 05:48:33;;;;;;;4.08;1.87;;;;;;;24.96;60.78;101551.52;1695512;83;21043;-91
2022/06/11 05:51:00;;;;;;;5.05;1.77;;;;;;;25.25;60.75;101558.98;1739096;81;21529;-91
2022/06/11 05:53:31;;;;;;;5.83;1.87;;;;;;;25.63;60.39;101562.30;1753821;80;21455;-90
2022/06/11 05:56:00;;;;;;;2.98;1.90;;;;;;;25.94;60.08;101558.09;1754654;81;21050;-91
2022/06/11 05:58:31;;;;;;;1.82;1.70;;;;;;;26.22;59.78;101559.75;1682473;83;21719;-90
2022/06/11 06:00:58;;;;;;;3.37;2.27;;;;;;;26.48;59.65;101556.70;1720704;81;21727;-90
2022/06/11 06:03:25;;;;;;;1.90;1.70;;;;;;;26.82;59.29;101553.05;1749092;80;21576;-89
2022/06/11 06:05:52;;;;;;;2.27;1.80;;;;;;;27.18;59.05;101559.77;1753490;81;21057;-89
2022/06/11 06:08:18;;;;;;;1.95;1.62;;;;;;;27.47;58.74;101559.03;1744865;81;21488;-90
2022/06/11 06:10:52;;;;;;;2.45;1.50;;;;;;;27.88;58.47;101560.48;1751610;81;20971;-89
2022/06/11 06:16:06;;;;;;;2.98;1.60;;;;;;;28.84;57.86;101566.50;1729870;81;21088;-90
2022/06/11 06:18:32;;;;;;;;;;;;;;;29.40;57.37;101556.67;1717917;82;21554;-89
2022/06/11 06:21:01;;;;;;;2.35;1.35;;;;;;;29.88;56.33;101558.50;1714715;82;20261;-89
2022/06/11 06:23:34;;;;;;;1.60;1.05;;;;;;;30.07;56.40;101556.53;1712299;82;20971;-90
2022/06/11 06:26:01;;;;;;;1.35;1.20;;;;;;;29.82;56.08;101568.34;1708217;82;21064;-88
2022/06/11 06:28:27;;;;;;;3.60;1.30;;;;;;;29.91;55.92;101568.92;1714911;83;21629;-89
2022/06/11 06:30:58;;;;;;;1.70;1.27;;;;;;;30.30;55.29;101569.25;1712005;82;21090;-89
2022/06/11 06:33:24;;;;;;;2.45;1.30;;;;;;;30.66;54.66;101566.66;1711779;83;21083;-88
2022/06/11 06:35:50;;;;;;;1.32;0.90;;;;;;;31.04;54.37;101564.66;1714657;82;21814;-89
2022/06/11 06:38:18;;;;;;;2.52;1.20;;;;;;;31.49;53.85;101565.59;1701307;82;21655;-89
2022/06/11 06:40:45;;;;;;;2.58;1.15;;;;;;;31.90;53.30;101564.54;1710988;82;21090;-89
2022/06/11 06:43:11;;;;;;;1.85;0.80;;;;;;;32.23;52.52;101568.67;1712170;82;21607;-89
2022/06/11 06:45:38;;;;;;;4.47;1.70;;;;;;;32.63;52.10;101562.24;1713355;82;21560;-90
2022/06/11 06:48:05;;;;;;;1.22;1.10;;;;;;;33.03;51.44;101564.16;1693831;84;21549;-88
2022/06/11 06:50:32;;;;;;;2.15;1.05;;;;;;;33.08;50.66;101559.70;1687621;84;21044;-88
2022/06/11 06:52:59;;;;;;;2.50;1.20;;;;;;;32.66;49.94;101560.61;1694879;84;21085;-89
2022/06/11 06:55:26;;;;;;;1.37;1.02;;;;;;;32.57;49.77;101561.83;1694335;83;21643;-88
2022/06/11 06:57:52;;;;;;;2.20;1.20;;;;;;;32.89;49.32;101553.42;1689323;83;21755;-88
2022/06/11 07:00:19;;;;;;;0.95;0.90;;;;;;;33.35;48.83;101558.87;1680483;84;21614;-88
2022/06/11 07:02:47;;;;;;;5.12;1.30;;;;;;;33.85;48.53;101560.59;1699612;83;21561;-89
2022/06/11 07:05:16;;;;;;;1.42;1.05;;;;;;;34.31;47.92;101547.45;1699542;83;21804;-89
2022/06/11 07:07:42;;;;;;;3.85;0.90;;;;;;;34.55;47.39;101544.06;1696286;84;21032;-88
2022/06/11 07:10:10;;;;;;;2.47;1.00;;;;;;;34.93;47.02;101536.55;1691731;84;21662;-91
2022/06/11 07:12:37;;;;;;;2.02;1.00;;;;;;;35.13;46.25;101541.52;1686550;84;21503;-89
2022/06/11 07:15:04;;;;;;;3.50;1.10;;;;;;;34.64;45.53;101543.61;1696442;81;21544;-89
2022/06/11 07:17:35;;;;;;;2.10;1.00;;;;;;;34.03;45.03;101542.66;1726448;82;21120;-89
2022/06/11 07:20:07;;;;;;;1.82;1.10;;;;;;;33.88;44.53;101538.32;1721453;82;21489;-89
2022/06/11 07:22:45;;;;;;;1.22;1.10;;;;;;;33.73;43.90;101546.56;1721238;82;21013;-89
2022/06/11 07:25:13;;;;;;;4.92;1.00;;;;;;;33.62;43.30;101546.78;1714593;82;21579;-88
2022/06/11 07:27:49;;;;;;;1.82;1.10;;;;;;;33.54;42.65;101544.01;1682828;84;22460;-88
2022/06/11 07:30:20;;;;;;;1.32;1.02;;;;;;;33.23;42.02;101544.81;1711305;82;21123;-89
2022/06/11 07:32:52;;;;;;;1.82;0.95;;;;;;;32.85;41.78;101538.63;1711849;82;21060;-89
2022/06/11 07:35:19;;;;;;;2.27;1.20;;;;;;;32.70;41.42;101536.56;1725327;81;22352;-89
2022/06/11 07:37:48;;;;;;;2.80;1.00;;;;;;;32.48;41.04;101537.75;1722468;82;21767;-88
2022/06/11 07:40:15;;;;;;;3.67;0.95;;;;;;;32.38;40.70;101535.58;1711907;82;21009;-89
2022/06/11 07:42:41;;;;;;;1.62;1.10;;;;;;;32.30;40.16;101536.79;1679180;84;21040;-89
2022/06/11 07:45:08;;;;;;;;;;;;;;;32.26;40.10;101534.89;1705821;82;21469;-88
2022/06/11 07:47:53;;;;;;;3.00;1.27;;;;;;;32.27;40.11;101539.75;1707888;82;20204;-89
2022/06/11 07:50:24;;;;;;;1.35;1.00;;;;;;;32.29;39.75;101537.78;1713846;82;21583;-90
2022/06/11 07:52:50;;;;;;;1.90;1.17;;;;;;;32.43;39.50;101541.34;1701660;82;21055;-90
2022/06/11 07:55:18;;;;;;;2.77;1.37;;;;;;;32.31;39.11;101535.80;1707330;82;21507;-89
2022/06/11 07:57:45;;;;;;;3.80;1.32;;;;;;;32.11;38.88;101538.49;1677623;84;21041;-89
2022/06/11 08:00:17;;;;;;;4.65;1.05;;;;;;;32.08;38.73;101528.07;1711890;82;21064;-89
2022/06/11 08:02:43;;;;;;;2.05;1.07;;;;;;;32.13;38.67;101539.20;1713287;82;21072;-89
2022/06/11 08:05:11;;;;;;;1.60;0.85;;;;;;;32.24;38.33;101535.53;1715348;82;21131;-90
2022/06/11 08:07:38;;;;;;;4.00;1.30;;;;;;;32.20;38.14;101537.64;1718697;82;21148;-90
2022/06/11 08:10:04;;;;;;;;;;;;;;;32.05;37.74;101537.72;1725289;82;21008;-88
2022/06/11 08:12:33;;;;;;;3.52;1.90;;;;;;;31.95;37.89;101538.70;1712104;82;20202;-89
2022/06/11 08:14:59;;;;;;;1.47;1.00;;;;;;;31.94;37.75;101535.19;1716637;82;22136;-89
2022/06/11 08:17:28;;;;;;;;;;;;;;;31.93;37.43;101533.50;1680469;84;21099;-92
2022/06/11 08:19:54;;;;;;;2.67;0.90;;;;;;;31.93;37.53;101525.47;1713367;81;20194;-91
2022/06/11 08:22:21;;;;;;;1.37;1.00;;;;;;;31.81;37.24;101531.45;1712315;82;21589;-91
2022/06/11 08:24:49;;;;;;;3.45;0.98;;;;;;;31.65;37.03;101521.78;1715471;82;21073;-92
2022/06/11 08:27:16;;;;;;;1.82;0.80;;;;;;;31.63;36.87;101523.75;1703776;83;20997;-92
2022/06/11 08:29:44;;;;;;;2.12;1.22;;;;;;;31.67;36.74;101527.00;1715765;82;22532;-91
2022/06/11 08:32:10;;;;;;;6.97;1.32;;;;;;;31.65;36.52;101526.29;1716105;82;21600;-91
2022/06/11 08:34:41;;;;;;;1.40;1.12;;;;;;;31.60;36.25;101528.89;1706388;82;22291;-91
2022/06/11 08:37:09;;;;;;;4.12;1.00;;;;;;;31.50;36.14;101528.52;1689327;84;20977;-91
2022/06/11 08:39:36;;;;;;;1.55;0.93;;;;;;;31.40;36.00;101519.62;1722375;82;21127;-91
2022/06/11 08:42:05;;;;;;;3.10;1.32;;;;;;;31.30;35.75;101519.60;1706942;82;21150;-90
2022/06/11 08:44:36;;;;;;;1.27;1.15;;;;;;;31.12;35.37;101515.40;1722412;82;21454;-90
2022/06/11 08:47:10;;;;;;;2.37;1.20;;;;;;;31.08;35.52;101510.46;1711238;82;20975;-91
2022/06/11 08:49:46;;;;;;;2.05;1.25;;;;;;;31.12;35.44;101510.05;1667287;85;21144;-90
2022/06/11 08:52:24;;;;;;;3.02;1.30;;;;;;;31.15;35.41;101511.64;1662998;85;21088;-90
2022/06/11 08:54:51;;;;;;;4.47;1.30;;;;;;;31.13;35.37;101511.78;1654967;85;21112;-91
2022/06/11 08:57:42;;;;;;;2.27;1.17;;;;;;;31.18;35.26;101506.88;1714625;82;21041;-91
2022/06/11 09:00:16;;;;;;;2.55;1.40;;;;;;;31.21;35.15;101505.23;1716660;82;21653;-91
2022/06/11 09:03:32;;;;;;;1.90;1.07;;;;;;;31.15;35.13;101516.98;1712213;82;21070;-91
2022/06/11 09:06:29;;;;;;;1.90;1.00;;;;;;;31.11;35.05;101512.38;1680127;84;21175;-90
2022/06/11 09:09:07;;;;;;;2.60;1.05;;;;;;;31.05;35.00;101508.91;1668081;84;21013;-90
2022/06/11 09:12:03;;;;;;;1.77;1.22;;;;;;;30.96;34.84;101505.70;1712275;82;21083;-91
2022/06/11 09:15:19;;;;;;;3.35;1.00;;;;;;;30.93;34.76;101500.63;1706604;82;21758;-90
2022/06/11 09:18:13;;;;;;;2.92;1.27;;;;;;;30.82;34.55;101506.06;1742240;80;21060;-91
2022/06/11 09:20:54;;;;;;;1.80;1.17;;;;;;;30.47;34.50;101499.77;1756673;80;21550;-90
2022/06/11 09:23:50;;;;;;;9.05;1.85;;;;;;;30.25;34.39;101500.27;1761020;80;21167;-90
2022/06/11 09:26:32;;;;;;;2.67;1.10;;;;;;;30.01;34.22;101489.51;1750718;80;21116;-90
2022/06/11 09:29:19;;;;;;;3.17;1.00;;;;;;;29.78;34.10;101491.39;1758183;80;21123;-90
2022/06/11 09:32:07;;;;;;;1.95;0.90;;;;;;;29.49;34.02;101486.66;1756994;79;21001;-89
2022/06/11 09:34:50;;;;;;;3.90;1.20;;;;;;;29.18;33.87;101494.08;1726343;80;21500;-91
2022/06/11 09:37:49;;;;;;;2.87;1.15;;;;;;;29.02;33.87;101489.16;1748891;80;21037;-90
2022/06/11 09:40:35;;;;;;;2.85;1.37;;;;;;;28.94;33.85;101492.92;1723880;81;21455;-91
2022/06/11 09:43:15;;;;;;;3.98;1.17;;;;;;;28.86;33.67;101484.20;1709031;82;21538;-91
2022/06/11 09:46:23;;;;;;;6.15;1.30;;;;;;;28.75;33.61;101481.51;1760713;80;21523;-91
2022/06/11 09:49:23;;;;;;;1.62;0.78;;;;;;;28.69;33.38;101489.98;1727960;82;21596;-90
2022/06/11 09:52:12;;;;;;;4.12;1.05;;;;;;;28.32;33.39;101484.02;1744199;80;21164;-91
2022/06/11 09:54:52;;;;;;;6.47;1.92;;;;;;;28.06;33.44;101478.03;1745076;80;21056;-90
2022/06/11 09:57:29;;;;;;;1.62;0.90;;;;;;;27.88;33.46;101479.41;1754432;81;21045;-90
2022/06/11 10:00:27;;;;;;;2.92;1.27;;;;;;;27.69;33.45;101486.09;1757244;81;21369;-91
2022/06/11 10:03:19;;;;;;;1.95;1.17;;;;;;;27.58;33.51;101479.84;1756110;81;21033;-91
2022/06/11 10:06:03;;;;;;;4.22;1.15;;;;;;;27.51;33.43;101481.28;1746428;81;21060;-90
2022/06/11 10:08:50;;;;;;;3.35;1.17;;;;;;;27.47;33.52;101475.82;1743932;80;21374;-90
2022/06/11 10:11:46;;;;;;;2.67;1.10;;;;;;;27.44;33.51;101477.37;1733600;80;21092;-90
2022/06/11 10:14:37;;;;;;;1.40;1.10;;;;;;;27.44;33.53;101484.86;1732520;80;23863;-90
2022/06/11 10:17:26;;;;;;;9.68;1.35;;;;;;;27.32;33.44;101476.45;1736780;81;21101;-91
2022/06/11 10:20:16;;;;;;;2.30;1.07;;;;;;;27.03;33.47;101472.76;1703430;83;21520;-90
2022/06/11 10:23:18;;;;;;;2.05;1.00;;;;;;;26.89;33.56;101469.38;1706267;83;21023;-90
2022/06/11 10:26:02;;;;;;;4.10;1.10;;;;;;;26.83;33.54;101475.13;1643468;86;21571;-91
2022/06/11 10:28:46;;;;;;;1.72;0.95;;;;;;;26.71;33.63;101471.52;1691288;84;21137;-90
2022/06/11 10:31:19;;;;;;;3.08;1.20;;;;;;;26.66;33.75;101473.17;1690541;84;21528;-91
2022/06/11 10:33:57;;;;;;;2.22;1.05;;;;;;;26.65;33.73;101475.45;1689026;83;21144;-90
2022/06/11 10:36:41;;;;;;;3.62;1.45;;;;;;;26.55;33.82;101474.88;1690693;84;22379;-90
2022/06/11 10:39:33;;;;;;;2.27;1.15;;;;;;;26.62;33.97;101469.03;1693469;84;21173;-91
2022/06/11 10:42:13;;;;;;;1.87;1.00;;;;;;;26.66;33.95;101459.91;1668978;84;21101;-90
2022/06/11 10:44:53;;;;;;;2.30;1.10;;;;;;;26.70;34.00;101461.86;1687774;84;21128;-89
2022/06/11 10:47:37;;;;;;;4.20;1.27;;;;;;;26.65;34.10;101458.69;1690527;84;21164;-90
2022/06/11 10:50:20;;;;;;;3.52;1.47;;;;;;;26.66;34.19;101456.41;1691570;84;21553;-90
2022/06/11 10:53:09;;;;;;;2.12;1.00;;;;;;;26.69;34.23;101456.19;1690170;83;21040;-90
2022/06/11 10:55:55;;;;;;;3.58;0.90;;;;;;;26.67;34.21;101454.97;1677915;84;21081;-90
2022/06/11 10:58:47;;;;;;;2.17;1.02;;;;;;;26.64;34.19;101445.05;1732746;81;21140;-90
2022/06/11 11:01:27;;;;;;;2.40;0.90;;;;;;;26.61;34.25;101447.91;1730528;81;21801;-87
2022/06/11 11:04:26;;;;;;;3.55;0.90;;;;;;;26.62;34.29;101451.79;1703982;83;21472;-87
2022/06/11 11:07:14;;;;;;;7.10;2.52;;;;;;;26.69;34.41;101444.25;1667292;84;22057;-87
2022/06/11 11:09:41;;;;;;;4.45;1.10;;;;;;;26.79;34.44;101439.98;1688261;84;21547;-86
2022/06/11 11:12:24;;;;;;;2.85;1.05;;;;;;;26.84;34.33;101434.36;1699436;83;21015;-88
2022/06/11 11:15:02;;;;;;;3.10;1.50;;;;;;;26.82;34.35;101439.77;1717395;82;21087;-88
2022/06/11 11:17:32;;;;;;;1.52;1.00;;;;;;;26.84;34.35;101440.52;1708625;83;21135;-87
2022/06/11 11:20:29;;;;;;;5.45;2.17;;;;;;;26.86;34.32;101442.58;1696588;84;21032;-89
2022/06/11 11:23:04;;;;;;;2.58;1.22;;;;;;;26.89;34.39;101442.84;1698029;83;21107;-89
2022/06/11 11:25:36;;;;;;;1.72;1.00;;;;;;;26.96;34.42;101434.84;1697795;83;21559;-88
2022/06/11 11:28:02;;;;;;;12.65;2.42;;;;;;;27.04;34.45;101436.44;1698205;83;21520;-88
2022/06/11 11:30:36;;;;;;;2.62;1.20;;;;;;;27.06;34.38;101430.54;1693501;83;21076;-88
2022/06/11 11:33:32;;;;;;;3.05;1.02;;;;;;;27.02;34.46;101430.42;1688427;84;21036;-88
2022/06/11 11:36:21;;;;;;;4.42;0.85;;;;;;;27.02;34.56;101425.11;1697973;83;21099;-88
2022/06/11 11:39:17;;;;;;;2.02;1.07;;;;;;;27.06;34.57;101419.07;1686786;84;21551;-88
2022/06/11 11:41:55;;;;;;;3.42;1.10;;;;;;;27.13;34.62;101426.96;1692772;83;21410;-89
2022/06/11 11:44:24;;;;;;;3.50;1.25;;;;;;;27.13;34.55;101422.98;1697691;82;20992;-88
2022/06/11 11:46:59;;;;;;;4.12;1.20;;;;;;;27.18;34.66;101427.48;1695232;82;22432;-89
2022/06/11 11:49:30;;;;;;;2.00;0.95;;;;;;;27.21;34.65;101425.92;1695278;82;21532;-87
2022/06/11 11:52:07;;;;;;;4.35;1.25;;;;;;;27.19;34.67;101431.34;1694279;84;20973;-87
2022/06/11 11:54:34;;;;;;;2.35;1.10;;;;;;;27.09;34.54;101422.83;1691776;82;21527;-87
2022/06/11 11:57:12;;;;;;;2.67;1.10;;;;;;;26.98;34.61;101429.80;1698682;83;21548;-87
2022/06/11 11:59:58;;;;;;;5.05;1.30;;;;;;;26.93;34.60;101420.43;1683859;84;21080;-87
2022/06/11 12:02:30;;;;;;;;;;;;;;;26.85;34.66;101426.77;1678408;84;20984;-86
2022/06/11 12:05:01;;;;;;;3.60;1.10;;;;;;;26.80;34.66;101423.59;1700543;84;20156;-87
2022/06/11 12:07:39;;;;;;;4.03;1.00;;;;;;;26.73;34.74;101418.34;1701501;83;21742;-87